createdAt,value
2018-07-28T00:00:23.876Z,12.68
2018-07-28T00:02:54.665Z,9.45
2018-07-28T00:05:25.643Z,8.00
2018-07-28T00:07:56.648Z,7.97
2018-07-28T00:10:27.746Z,9.68
2018-07-28T00:12:58.680Z,8.73
2018-07-28T00:15:29.613Z,8.83
2018-07-28T00:18:00.565Z,9.23
2018-07-28T00:20:31.596Z,10.68
2018-07-28T00:23:02.870Z,9.53
2018-07-28T00:25:38.691Z,9.55
2018-07-28T00:28:09.001Z,8.43
2018-07-28T00:30:38.924Z,12.67
2018-07-28T00:33:08.780Z,12.23
2018-07-28T00:35:38.748Z,8.78
2018-07-28T00:38:08.634Z,9.30
2018-07-28T00:40:39.636Z,8.58
2018-07-28T00:43:10.616Z,7.72
2018-07-28T00:45:43.002Z,8.46
2018-07-28T00:48:12.834Z,7.17
2018-07-28T00:50:44.040Z,6.37
2018-07-28T00:53:14.830Z,7.12
2018-07-28T00:55:48.643Z,8.25
2018-07-28T00:58:18.541Z,8.83
2018-07-28T01:00:48.593Z,8.33
2018-07-28T01:03:18.486Z,8.00
2018-07-28T01:05:49.865Z,8.52
2018-07-28T01:08:20.673Z,7.00
2018-07-28T01:10:51.676Z,9.60
2018-07-28T01:13:22.526Z,10.03
2018-07-28T01:15:55.030Z,8.55
2018-07-28T01:18:24.876Z,9.83
2018-07-28T01:20:55.845Z,9.50
2018-07-28T01:23:26.698Z,11.80
2018-07-28T01:25:57.589Z,8.68
2018-07-28T01:28:29.930Z,8.98
2018-07-28T01:30:59.964Z,8.97
2018-07-28T01:33:30.739Z,9.88
2018-07-28T01:36:02.681Z,9.13
2018-07-28T01:38:32.847Z,8.95
2018-07-28T01:41:03.742Z,9.15
2018-07-28T01:43:34.610Z,9.93
2018-07-28T01:46:05.629Z,8.40
2018-07-28T01:48:36.945Z,8.83
2018-07-28T01:51:07.872Z,10.20
2018-07-28T01:53:38.687Z,9.83
2018-07-28T01:56:09.758Z,7.97
2018-07-28T01:58:40.733Z,9.00
2018-07-28T02:01:11.616Z,10.25
2018-07-28T02:03:42.867Z,8.70
2018-07-28T02:06:13.751Z,8.03
2018-07-28T02:08:44.679Z,8.78
2018-07-28T02:11:15.617Z,25.15
2018-07-28T02:13:46.602Z,6.10
2018-07-28T02:16:19.064Z,12.25
2018-07-28T02:18:48.918Z,17.43
2018-07-28T02:21:19.803Z,5.40
2018-07-28T02:23:50.648Z,7.00
2018-07-28T02:26:21.709Z,6.00
2018-07-28T02:28:53.686Z,5.15
2018-07-28T02:31:23.840Z,5.27
2018-07-28T02:33:53.778Z,5.80
2018-07-28T02:36:24.661Z,5.40
2018-07-28T02:38:56.522Z,6.12
2018-07-28T02:41:26.490Z,7.50
2018-07-28T02:43:57.952Z,5.96
2018-07-28T02:46:28.805Z,5.62
2018-07-28T02:48:59.631Z,5.03
2018-07-28T02:51:31.051Z,5.84
2018-07-28T02:54:01.742Z,7.75
2018-07-28T02:56:32.626Z,6.08
2018-07-28T02:59:04.540Z,7.97
2018-07-28T03:01:35.059Z,5.62
2018-07-28T03:04:05.881Z,7.72
2018-07-28T03:06:37.639Z,5.78
2018-07-28T03:09:12.039Z,7.50
2018-07-28T03:11:42.532Z,6.20
2018-07-28T03:14:12.328Z,8.63
2018-07-28T03:16:42.656Z,5.90
2018-07-28T03:19:12.514Z,5.33
2018-07-28T03:21:42.585Z,5.37
2018-07-28T03:24:12.478Z,5.15
2018-07-28T03:26:43.893Z,5.82
2018-07-28T03:29:14.644Z,5.00
2018-07-28T03:31:46.328Z,5.24
2018-07-28T03:34:16.851Z,7.28
2018-07-28T03:36:47.689Z,5.78
2018-07-28T03:39:19.981Z,5.22
2018-07-28T03:41:49.857Z,7.10
2018-07-28T03:44:20.740Z,7.60
2018-07-28T03:46:51.606Z,7.37
2018-07-28T03:49:22.907Z,5.56
2018-07-28T03:51:54.191Z,6.33
2018-07-28T03:54:24.982Z,6.30
2018-07-28T03:56:55.863Z,5.47
2018-07-28T03:59:26.675Z,5.75
2018-07-28T04:01:57.615Z,6.40
2018-07-28T04:04:29.507Z,5.87
2018-07-28T04:07:00.033Z,7.22
2018-07-28T04:09:30.723Z,6.08
2018-07-28T04:12:03.137Z,7.67
2018-07-28T04:14:32.945Z,7.30
2018-07-28T04:17:03.910Z,6.00
2018-07-28T04:19:34.701Z,6.85
2018-07-28T04:22:05.706Z,8.60
2018-07-28T04:24:36.612Z,6.55
2018-07-28T04:27:07.586Z,12.33
2018-07-28T04:29:38.890Z,8.82
2018-07-28T04:32:10.215Z,8.52
2018-07-28T04:34:40.850Z,8.05
2018-07-28T04:37:11.792Z,8.70
2018-07-28T04:39:42.785Z,8.95
2018-07-28T04:42:13.689Z,12.10
2018-07-28T04:44:44.513Z,10.93
2018-07-28T04:47:16.096Z,9.68
2018-07-28T04:49:47.283Z,10.08
2018-07-28T04:52:17.880Z,11.33
2018-07-28T04:54:48.713Z,10.70
2018-07-28T04:57:18.615Z,11.53
2018-07-28T04:59:49.554Z,10.63
2018-07-28T05:02:20.939Z,11.62
2018-07-28T05:04:51.777Z,11.25
2018-07-28T05:07:22.737Z,11.05
2018-07-28T05:09:54.054Z,12.33
2018-07-28T05:12:25.313Z,14.73
2018-07-28T05:14:55.899Z,18.95
2018-07-28T05:17:26.820Z,14.43
2018-07-28T05:19:57.719Z,13.13
2018-07-28T05:22:28.742Z,14.60
2018-07-28T05:24:58.657Z,18.27
2018-07-28T05:27:30.597Z,14.15
2018-07-28T05:30:00.517Z,15.05
2018-07-28T05:32:31.905Z,15.24
2018-07-28T05:35:02.764Z,15.38
2018-07-28T05:37:33.678Z,17.27
2018-07-28T05:40:04.771Z,19.25
2018-07-28T05:42:35.822Z,17.12
2018-07-28T05:45:07.348Z,16.55
2018-07-28T05:47:37.869Z,17.60
2018-07-28T05:50:09.881Z,25.85
2018-07-28T05:52:40.026Z,21.53
2018-07-28T05:55:10.872Z,22.80
2018-07-28T05:57:41.746Z,18.60
2018-07-28T06:00:12.795Z,20.35
2018-07-28T06:02:43.899Z,20.85
2018-07-28T06:05:15.000Z,20.40
2018-07-28T06:07:45.979Z,18.80
2018-07-28T06:10:16.947Z,19.17
2018-07-28T06:12:47.917Z,25.00
2018-07-28T06:15:18.760Z,20.60
2018-07-28T06:17:48.674Z,20.40
2018-07-28T06:20:19.615Z,19.45
2018-07-28T06:22:50.976Z,19.96
2018-07-28T06:25:21.852Z,21.42
2018-07-28T06:27:52.754Z,24.00
2018-07-28T06:30:23.838Z,26.52
2018-07-28T06:32:54.826Z,19.98
2018-07-28T06:35:25.738Z,21.65
2018-07-28T06:37:56.687Z,24.92
2018-07-28T06:40:27.669Z,21.93
2018-07-28T06:42:58.636Z,19.73
2018-07-28T06:45:28.474Z,17.20
2018-07-28T06:47:59.946Z,22.22
2018-07-28T06:50:30.813Z,22.27
2018-07-28T06:53:02.130Z,19.62
2018-07-28T06:55:32.882Z,22.07
2018-07-28T06:58:03.798Z,17.57
2018-07-28T07:00:34.808Z,15.43
2018-07-28T07:03:05.818Z,16.12
2018-07-28T07:05:36.653Z,15.78
2018-07-28T07:08:07.633Z,16.97
2018-07-28T07:10:38.583Z,15.80
2018-07-28T07:13:09.715Z,15.70
2018-07-28T07:15:40.551Z,13.70
2018-07-28T07:18:12.144Z,13.92
2018-07-28T07:20:42.841Z,13.55
2018-07-28T07:23:14.034Z,13.20
2018-07-28T07:25:44.746Z,12.53
2018-07-28T07:28:15.976Z,12.78
2018-07-28T07:30:46.845Z,12.63
2018-07-28T07:33:17.937Z,12.25
2018-07-28T07:35:48.724Z,16.30
2018-07-28T07:38:19.722Z,13.08
2018-07-28T07:40:50.643Z,12.37
2018-07-28T07:43:22.578Z,11.55
2018-07-28T07:45:52.966Z,11.97
2018-07-28T07:48:23.865Z,12.47
2018-07-28T07:50:54.700Z,10.50
2018-07-28T07:53:25.683Z,9.78
2018-07-28T07:55:56.564Z,9.95
2018-07-28T07:58:28.077Z,16.58
2018-07-28T08:00:58.780Z,9.18
2018-07-28T08:03:29.675Z,9.30
2018-07-28T08:06:00.590Z,13.58
2018-07-28T08:08:31.940Z,10.72
2018-07-28T08:11:03.083Z,9.38
2018-07-28T08:13:33.861Z,9.63
2018-07-28T08:16:04.733Z,11.03
2018-07-28T08:18:35.713Z,11.40
2018-07-28T08:21:06.748Z,9.63
2018-07-28T08:23:38.306Z,10.05
2018-07-28T08:26:08.918Z,9.63
2018-07-28T08:28:40.066Z,9.55
2018-07-28T08:31:10.702Z,9.50
2018-07-28T08:33:41.615Z,8.43
2018-07-28T08:36:12.591Z,11.33
2018-07-28T08:38:44.311Z,8.60
2018-07-28T08:41:14.848Z,10.56
2018-07-28T08:43:45.964Z,8.93
2018-07-28T08:46:17.108Z,9.55
2018-07-28T08:48:48.218Z,8.83
2018-07-28T08:51:18.809Z,8.12
2018-07-28T08:53:49.673Z,7.75
2018-07-28T08:56:20.617Z,9.68
2018-07-28T08:58:53.634Z,8.44
2018-07-28T09:01:23.609Z,8.47
2018-07-28T09:03:53.696Z,10.95
2018-07-28T09:06:24.773Z,9.13
2018-07-28T09:08:55.709Z,10.15
2018-07-28T09:11:26.571Z,12.58
2018-07-28T09:13:57.941Z,8.68
2018-07-28T09:16:28.816Z,7.60
2018-07-28T09:18:59.873Z,7.72
2018-07-28T09:21:31.080Z,7.22
2018-07-28T09:24:01.954Z,7.97
2018-07-28T09:26:32.774Z,8.48
2018-07-28T09:29:03.709Z,7.60
2018-07-28T09:31:34.431Z,7.85
2018-07-28T09:34:04.952Z,8.04
2018-07-28T09:36:36.192Z,7.17
2018-07-28T09:39:10.113Z,8.33
2018-07-28T09:41:39.981Z,7.03
2018-07-28T09:44:09.838Z,7.42
2018-07-28T09:46:39.710Z,9.80
2018-07-28T09:49:10.743Z,6.67
2018-07-28T09:51:41.602Z,8.53
2018-07-28T09:54:23.373Z,6.97
2018-07-28T09:56:53.140Z,7.03
2018-07-28T09:59:24.798Z,12.80
2018-07-28T10:01:54.712Z,7.43
2018-07-28T10:04:24.670Z,7.42
2018-07-28T10:06:54.596Z,6.80
2018-07-28T10:09:24.501Z,6.60
2018-07-28T10:11:54.351Z,7.13
2018-07-28T10:14:24.333Z,5.97
2018-07-28T10:16:54.261Z,7.43
2018-07-28T10:19:24.685Z,7.45
2018-07-28T10:21:54.499Z,6.17
2018-07-28T10:24:25.336Z,8.65
2018-07-28T10:26:55.304Z,7.27
2018-07-28T10:29:25.227Z,6.47
2018-07-28T10:31:55.148Z,6.20
2018-07-28T10:34:25.805Z,5.37
2018-07-28T10:36:56.732Z,6.72
2018-07-28T10:39:27.538Z,6.30
2018-07-28T10:41:59.601Z,6.10
2018-07-28T10:44:32.168Z,5.75
2018-07-28T10:47:02.476Z,5.67
2018-07-28T10:49:32.431Z,5.50
2018-07-28T10:52:20.903Z,7.02
2018-07-28T10:54:51.669Z,5.33
2018-07-28T10:57:24.286Z,5.30
2018-07-28T10:59:55.332Z,5.23
2018-07-28T11:02:25.384Z,5.87
2018-07-28T11:04:55.226Z,5.17
2018-07-28T11:07:25.108Z,5.33
2018-07-28T11:09:55.358Z,5.60
2018-07-28T11:12:25.706Z,7.17
2018-07-28T11:14:55.857Z,5.17
2018-07-28T11:17:26.362Z,5.77
2018-07-28T11:19:56.581Z,5.47
2018-07-28T11:22:26.459Z,5.77
2018-07-28T11:24:56.564Z,5.10
2018-07-28T11:27:26.409Z,5.97
2018-07-28T11:29:56.928Z,5.33
2018-07-28T11:32:37.244Z,5.67
2018-07-28T11:48:16.481Z,9.70
2018-07-28T11:50:46.334Z,5.00
2018-07-28T11:53:16.261Z,8.13
2018-07-28T11:55:46.164Z,6.50
2018-07-28T11:58:16.562Z,6.43
2018-07-28T12:00:46.788Z,8.90
2018-07-28T12:03:16.952Z,6.10
2018-07-28T12:05:46.818Z,5.57
2018-07-28T12:08:16.898Z,5.27
2018-07-28T12:10:46.844Z,6.07
2018-07-28T12:13:16.902Z,6.73
2018-07-28T12:15:46.769Z,6.33
2018-07-28T12:18:16.916Z,8.47
2018-07-28T12:20:46.970Z,5.70
2018-07-28T12:23:16.792Z,5.47
2018-07-28T12:25:46.911Z,5.13
2018-07-28T12:28:16.830Z,5.40
2018-07-28T12:30:47.453Z,5.60
2018-07-28T12:33:17.289Z,5.53
2018-07-28T12:35:47.097Z,5.20
2018-07-28T12:38:16.980Z,7.30
2018-07-28T12:40:46.834Z,5.63
2018-07-28T12:43:16.941Z,5.83
2018-07-28T12:45:46.801Z,5.43
2018-07-28T12:48:16.897Z,5.40
2018-07-28T12:50:46.805Z,8.20
2018-07-28T12:53:16.878Z,7.87
2018-07-28T12:55:46.837Z,6.87
2018-07-28T12:58:17.740Z,4.93
2018-07-28T13:00:47.913Z,5.00
2018-07-28T13:03:17.869Z,4.87
2018-07-28T13:05:47.790Z,4.77
2018-07-28T13:08:17.802Z,4.97
2018-07-28T13:10:47.788Z,4.60
2018-07-28T13:13:17.820Z,4.93
2018-07-28T13:15:47.800Z,8.87
2018-07-28T13:18:17.821Z,4.13
2018-07-28T13:20:47.890Z,4.03
2018-07-28T13:23:18.092Z,9.25
2018-07-28T13:25:48.160Z,3.27
2018-07-28T13:28:17.998Z,3.80
2018-07-28T13:30:47.989Z,3.47
2018-07-28T13:33:17.933Z,3.97
2018-07-28T13:35:48.338Z,5.12
2018-07-28T13:38:18.269Z,3.30
2018-07-28T13:40:48.279Z,5.67
2018-07-28T13:43:18.264Z,3.97
2018-07-28T13:45:48.373Z,3.73
2018-07-28T13:48:18.216Z,4.13
2018-07-28T13:50:48.549Z,6.40
2018-07-28T13:53:18.986Z,4.47
2018-07-28T13:55:48.802Z,4.03
2018-07-28T13:58:19.613Z,4.80
2018-07-28T14:00:49.488Z,3.97
2018-07-28T14:03:19.440Z,4.23
2018-07-28T14:05:49.315Z,4.27
2018-07-28T14:08:19.823Z,3.80
2018-07-28T14:10:50.574Z,4.05
2018-07-28T14:13:21.563Z,3.75
2018-07-28T14:15:52.685Z,6.17
2018-07-28T14:18:23.746Z,4.53
2018-07-28T14:20:54.898Z,4.95
2018-07-28T14:23:25.890Z,5.10
2018-07-28T14:25:56.965Z,4.25
2018-07-28T14:28:28.638Z,4.30
2018-07-28T14:30:58.677Z,4.70
2018-07-28T14:33:29.558Z,4.87
2018-07-28T14:36:00.580Z,4.30
2018-07-28T14:38:31.593Z,5.80
2018-07-28T14:41:04.181Z,4.40
2018-07-28T14:43:34.172Z,3.80
2018-07-28T14:46:04.871Z,4.55
2018-07-28T14:48:35.904Z,4.25
2018-07-28T14:51:06.838Z,4.65
2018-07-28T14:53:37.814Z,4.05
2018-07-28T14:56:08.652Z,3.85
2018-07-28T14:58:39.954Z,4.37
2018-07-28T15:01:10.705Z,6.35
2018-07-28T15:03:41.565Z,6.37
2018-07-28T15:06:12.561Z,4.00
2018-07-28T15:08:43.550Z,4.15
2018-07-28T15:11:15.485Z,5.05
2018-07-28T15:13:45.477Z,5.80
2018-07-28T15:16:17.510Z,4.50
2018-07-28T15:18:49.019Z,4.74
2018-07-28T15:21:18.861Z,5.43
2018-07-28T15:23:50.710Z,5.58
2018-07-28T15:26:20.552Z,5.10
2018-07-28T15:28:53.118Z,6.80
2018-07-28T15:31:23.673Z,6.00
2018-07-28T15:33:53.524Z,4.97
2018-07-28T15:36:24.023Z,4.54
2018-07-28T15:38:54.756Z,4.83
2018-07-28T15:41:25.610Z,6.62
2018-07-28T15:43:56.629Z,5.80
2018-07-28T15:46:27.869Z,9.10
2018-07-28T15:48:57.822Z,9.17
2018-07-28T15:51:28.589Z,8.65
2018-07-28T15:53:59.706Z,8.93
2018-07-28T15:56:30.605Z,7.12
2018-07-28T15:59:01.940Z,9.25
2018-07-28T16:01:32.746Z,6.50
2018-07-28T16:04:03.590Z,8.35
2018-07-28T16:06:34.594Z,5.70
2018-07-28T16:09:08.693Z,10.70
2018-07-28T16:11:38.535Z,22.37
2018-07-28T16:14:08.491Z,14.73
2018-07-28T16:16:38.902Z,12.44
2018-07-28T16:19:09.696Z,5.35
2018-07-28T16:21:41.164Z,7.87
2018-07-28T16:24:11.852Z,9.15
2018-07-28T16:26:42.712Z,9.63
2018-07-28T16:29:13.680Z,5.60
2018-07-28T16:31:45.253Z,5.70
2018-07-28T16:34:15.991Z,7.26
2018-07-28T16:36:46.885Z,5.85
2018-07-28T16:39:17.757Z,8.35
2018-07-28T16:41:48.626Z,5.70
2018-07-28T16:44:19.558Z,7.17
2018-07-28T16:46:50.594Z,5.45
2018-07-28T16:49:21.545Z,7.80
2018-07-28T16:51:52.573Z,7.80
2018-07-28T16:54:23.937Z,6.18
2018-07-28T16:56:55.667Z,5.45
2018-07-28T16:59:25.577Z,7.45
2018-07-28T17:01:56.488Z,6.12
2018-07-28T17:04:28.080Z,6.98
2018-07-28T17:06:58.727Z,8.73
2018-07-28T17:09:30.157Z,7.62
2018-07-28T17:11:59.989Z,7.97
2018-07-28T17:14:30.882Z,11.15
2018-07-28T17:17:01.665Z,7.17
2018-07-28T17:19:32.678Z,9.90
2018-07-28T17:22:03.549Z,6.15
2018-07-28T17:24:34.952Z,6.66
2018-07-28T17:27:05.774Z,6.62
2018-07-28T17:29:36.675Z,8.98
2018-07-28T17:32:08.610Z,7.20
2018-07-28T17:34:38.605Z,7.60
2018-07-28T17:37:09.901Z,7.58
2018-07-28T17:39:40.759Z,8.60
2018-07-28T17:42:11.665Z,5.65
2018-07-28T17:44:42.713Z,7.60
2018-07-28T17:47:13.941Z,6.37
2018-07-28T17:49:44.736Z,6.30
2018-07-28T17:52:15.648Z,5.95
2018-07-28T17:54:46.548Z,8.73
2018-07-28T17:57:18.854Z,6.45
2018-07-28T17:59:48.913Z,6.93
2018-07-28T18:02:19.770Z,6.85
2018-07-28T18:04:50.635Z,7.55
2018-07-28T18:07:22.165Z,6.78
2018-07-28T18:09:52.951Z,13.43
2018-07-28T18:12:23.773Z,8.65
2018-07-28T18:14:54.600Z,10.60
2018-07-28T18:17:25.461Z,7.85
2018-07-28T18:19:56.893Z,8.70
2018-07-28T18:22:27.728Z,11.33
2018-07-28T18:25:06.552Z,13.15
2018-07-28T18:27:36.345Z,8.83
2018-07-28T18:30:06.500Z,11.63
2018-07-28T18:32:36.287Z,9.20
2018-07-28T18:35:06.977Z,9.20
2018-07-28T18:37:37.716Z,13.75
2018-07-28T18:40:07.935Z,11.33
2018-07-28T18:42:37.824Z,17.10
2018-07-28T18:45:07.925Z,14.33
2018-07-28T18:47:37.945Z,21.63
2018-07-28T18:50:08.848Z,19.37
2018-07-28T18:52:39.734Z,14.43
2018-07-28T18:55:11.132Z,16.57
2018-07-28T18:57:41.960Z,18.25
2018-07-28T19:00:13.276Z,17.73
2018-07-28T19:02:44.972Z,21.65
2018-07-28T19:05:14.973Z,17.00
2018-07-28T19:07:45.929Z,20.60
2018-07-28T19:10:18.055Z,24.00
2018-07-28T19:12:52.993Z,17.67
2018-07-28T19:15:22.886Z,22.80
2018-07-28T19:18:57.266Z,20.77
2018-07-28T19:21:27.271Z,17.73
2018-07-28T19:24:01.424Z,19.17
2018-07-28T19:26:32.035Z,25.10
2018-07-28T19:29:06.958Z,25.13
2018-07-28T19:31:37.130Z,39.17
2018-07-28T19:34:07.084Z,49.87
2018-07-28T19:36:42.161Z,88.77
2018-07-28T19:39:13.183Z,79.57
2018-07-28T19:41:47.949Z,78.07
2018-07-28T19:44:18.137Z,113.20
2018-07-28T19:46:48.125Z,95.30
2018-07-28T19:49:18.354Z,89.93
2018-07-28T19:51:48.281Z,83.83
2018-07-28T19:54:18.196Z,80.30
2018-07-28T19:56:48.379Z,80.97
2018-07-28T19:59:18.405Z,78.70
2018-07-28T20:01:48.481Z,73.10
2018-07-28T20:04:18.472Z,54.80
2018-07-28T20:06:48.504Z,43.10
2018-07-28T20:09:18.974Z,42.90
2018-07-28T20:11:49.003Z,39.73
2018-07-28T20:14:18.864Z,31.27
2018-07-28T20:16:49.062Z,28.57
2018-07-28T20:19:18.984Z,26.30
2018-07-28T20:21:49.401Z,27.27
2018-07-28T20:24:19.238Z,20.70
2018-07-28T20:26:49.134Z,21.43
2018-07-28T20:29:19.149Z,25.00
2018-07-28T20:31:49.112Z,42.97
2018-07-28T20:34:19.085Z,47.30
2018-07-28T20:36:49.032Z,57.03
2018-07-28T20:39:18.979Z,40.20
2018-07-28T20:41:49.001Z,30.93
2018-07-28T20:44:19.061Z,26.97
2018-07-28T20:46:48.975Z,21.80
2018-07-28T20:49:18.898Z,25.80
2018-07-28T20:51:48.867Z,24.90
2018-07-28T20:54:19.010Z,22.57
2018-07-28T20:56:48.873Z,28.33
2018-07-28T20:59:18.925Z,28.17
2018-07-28T21:01:49.054Z,23.63
2018-07-28T21:04:19.078Z,24.93
2018-07-28T21:06:49.113Z,34.00
2018-07-28T21:09:19.042Z,30.93
2018-07-28T21:11:49.183Z,29.33
2018-07-28T21:14:19.227Z,32.93
2018-07-28T21:16:49.313Z,29.20
2018-07-28T21:19:19.104Z,36.23
2018-07-28T21:21:49.004Z,31.73
2018-07-28T21:24:19.207Z,29.70
2018-07-28T21:26:49.219Z,30.07
2018-07-28T21:29:19.323Z,33.23
2018-07-28T21:31:49.101Z,31.00
2018-07-28T21:34:19.333Z,30.30
2018-07-28T21:36:49.211Z,28.20
2018-07-28T21:39:19.706Z,25.77
2018-07-28T21:41:49.981Z,28.67
2018-07-28T21:44:20.284Z,19.87
2018-07-28T21:46:50.120Z,21.83
2018-07-28T21:49:20.142Z,20.07
2018-07-28T21:51:50.109Z,25.07
2018-07-28T21:54:20.152Z,28.30
2018-07-28T21:56:50.027Z,24.27
2018-07-28T21:59:20.070Z,27.60
2018-07-28T22:01:50.027Z,30.60
2018-07-28T22:04:25.187Z,38.87
2018-07-28T22:06:55.201Z,36.83
2018-07-28T22:09:25.407Z,35.93
2018-07-28T22:11:55.483Z,42.13
2018-07-28T22:14:25.527Z,33.40
2018-07-28T22:16:55.825Z,33.58
2018-07-28T22:19:25.955Z,32.17
2018-07-28T22:21:55.950Z,34.73
2018-07-28T22:24:25.997Z,30.87
2018-07-28T22:26:55.856Z,28.63
2018-07-28T22:29:25.891Z,27.00
2018-07-28T22:31:55.812Z,27.83
2018-07-28T22:34:25.905Z,23.40
2018-07-28T22:36:55.985Z,26.43
2018-07-28T22:39:25.960Z,20.47
2018-07-28T22:41:55.800Z,24.13
2018-07-28T22:44:25.913Z,25.53
2018-07-28T22:46:56.055Z,25.07
2018-07-28T22:49:27.020Z,26.95
2018-07-28T22:51:57.297Z,22.70
2018-07-28T22:54:27.748Z,27.27
2018-07-28T22:56:57.846Z,23.20
2018-07-28T22:59:28.026Z,21.60
2018-07-28T23:01:57.960Z,22.43
2018-07-28T23:04:27.840Z,22.17
2018-07-28T23:06:58.235Z,21.83
2018-07-28T23:09:28.642Z,24.55
2018-07-28T23:11:58.571Z,21.67
2018-07-28T23:14:28.907Z,22.27
2018-07-28T23:16:58.767Z,30.60
2018-07-28T23:19:28.665Z,25.60
2018-07-28T23:21:58.507Z,24.67
2018-07-28T23:24:28.467Z,23.80
2018-07-28T23:26:58.416Z,25.80
2018-07-28T23:29:28.458Z,22.73
2018-07-28T23:31:58.368Z,18.40
2018-07-28T23:34:29.325Z,21.82
2018-07-28T23:37:00.042Z,21.60
2018-07-28T23:39:33.472Z,22.74
2018-07-28T23:42:03.849Z,18.53
2018-07-28T23:44:33.796Z,19.12
2018-07-28T23:47:03.720Z,17.63
2018-07-28T23:49:34.760Z,16.32
2018-07-28T23:52:05.737Z,18.05
2018-07-28T23:54:36.714Z,16.60
2018-07-28T23:57:07.768Z,17.15
2018-07-28T23:59:38.769Z,22.30
